sensor_id;sensor_type;location;lat;lon;timestamp;P1;durP1;ratioP1;P2;durP2;ratioP2
6626;SDS011;3349;49.830;8.748;2023-09-19T00:01:57;3.92;;;2.17;;
6626;SDS011;3349;49.830;8.748;2023-09-19T00:04:25;3.28;;;2.00;;
6626;SDS011;3349;49.830;8.748;2023-09-19T00:06:54;3.58;;;1.83;;
6626;SDS011;3349;49.830;8.748;2023-09-19T00:09:21;2.67;;;1.85;;
6626;SDS011;3349;49.830;8.748;2023-09-19T00:11:51;2.53;;;2.00;;
6626;SDS011;3349;49.830;8.748;2023-09-19T00:14:18;6.20;;;2.10;;
6626;SDS011;3349;49.830;8.748;2023-09-19T00:16:44;4.82;;;1.90;;
6626;SDS011;3349;49.830;8.748;2023-09-19T00:19:12;2.65;;;1.83;;
6626;SDS011;3349;49.830;8.748;2023-09-19T00:21:40;2.67;;;1.90;;
6626;SDS011;3349;49.830;8.748;2023-09-19T00:24:08;4.53;;;2.13;;
6626;SDS011;3349;49.830;8.748;2023-09-19T00:26:35;2.72;;;1.63;;
6626;SDS011;3349;49.830;8.748;2023-09-19T00:29:02;4.07;;;2.45;;
6626;SDS011;3349;49.830;8.748;2023-09-19T00:31:29;2.60;;;1.92;;
6626;SDS011;3349;49.830;8.748;2023-09-19T00:33:56;5.82;;;1.98;;
6626;SDS011;3349;49.830;8.748;2023-09-19T00:36:25;3.28;;;2.10;;
6626;SDS011;3349;49.830;8.748;2023-09-19T00:38:53;3.17;;;2.30;;
6626;SDS011;3349;49.830;8.748;2023-09-19T00:41:19;3.47;;;2.17;;
6626;SDS011;3349;49.830;8.748;2023-09-19T00:43:46;3.55;;;2.05;;
6626;SDS011;3349;49.830;8.748;2023-09-19T00:46:16;3.25;;;2.28;;
6626;SDS011;3349;49.830;8.748;2023-09-19T00:48:43;5.40;;;2.33;;
6626;SDS011;3349;49.830;8.748;2023-09-19T00:51:10;3.83;;;1.98;;
6626;SDS011;3349;49.830;8.748;2023-09-19T00:53:38;4.80;;;2.00;;
6626;SDS011;3349;49.830;8.748;2023-09-19T00:56:06;5.18;;;2.63;;
6626;SDS011;3349;49.830;8.748;2023-09-19T00:58:33;2.80;;;2.05;;
6626;SDS011;3349;49.830;8.748;2023-09-19T01:01:01;3.45;;;2.40;;
6626;SDS011;3349;49.830;8.748;2023-09-19T01:03:29;3.25;;;2.35;;
6626;SDS011;3349;49.830;8.748;2023-09-19T01:05:55;4.38;;;2.47;;
6626;SDS011;3349;49.830;8.748;2023-09-19T01:08:22;3.78;;;2.58;;
6626;SDS011;3349;49.830;8.748;2023-09-19T01:10:51;3.47;;;2.40;;
6626;SDS011;3349;49.830;8.748;2023-09-19T01:13:25;4.25;;;2.15;;
6626;SDS011;3349;49.830;8.748;2023-09-19T01:15:59;5.70;;;2.53;;
6626;SDS011;3349;49.830;8.748;2023-09-19T01:18:35;5.68;;;2.58;;
6626;SDS011;3349;49.830;8.748;2023-09-19T01:21:11;4.95;;;2.60;;
6626;SDS011;3349;49.830;8.748;2023-09-19T01:24:08;3.50;;;2.78;;
6626;SDS011;3349;49.830;8.748;2023-09-19T01:26:55;6.13;;;3.05;;
6626;SDS011;3349;49.830;8.748;2023-09-19T01:29:34;5.82;;;2.55;;
6626;SDS011;3349;49.830;8.748;2023-09-19T01:32:06;4.85;;;2.67;;
6626;SDS011;3349;49.830;8.748;2023-09-19T01:34:44;4.43;;;2.50;;
6626;SDS011;3349;49.830;8.748;2023-09-19T01:37:14;6.53;;;2.67;;
6626;SDS011;3349;49.830;8.748;2023-09-19T01:39:45;5.57;;;3.10;;
6626;SDS011;3349;49.830;8.748;2023-09-19T01:42:21;3.50;;;2.80;;
6626;SDS011;3349;49.830;8.748;2023-09-19T01:44:57;6.50;;;3.03;;
6626;SDS011;3349;49.830;8.748;2023-09-19T01:47:33;4.68;;;3.45;;
6626;SDS011;3349;49.830;8.748;2023-09-19T01:50:07;4.65;;;3.15;;
6626;SDS011;3349;49.830;8.748;2023-09-19T01:52:45;4.68;;;2.90;;
6626;SDS011;3349;49.830;8.748;2023-09-19T01:55:18;3.70;;;3.28;;
6626;SDS011;3349;49.830;8.748;2023-09-19T01:57:48;6.55;;;3.40;;
6626;SDS011;3349;49.830;8.748;2023-09-19T02:00:20;3.67;;;2.88;;
6626;SDS011;3349;49.830;8.748;2023-09-19T02:02:50;8.18;;;3.33;;
6626;SDS011;3349;49.830;8.748;2023-09-19T02:05:24;3.72;;;3.03;;
6626;SDS011;3349;49.830;8.748;2023-09-19T02:07:52;3.25;;;2.97;;
6626;SDS011;3349;49.830;8.748;2023-09-19T02:10:20;3.97;;;3.03;;
6626;SDS011;3349;49.830;8.748;2023-09-19T02:12:47;3.63;;;2.22;;
6626;SDS011;3349;49.830;8.748;2023-09-19T02:15:14;3.70;;;2.75;;
6626;SDS011;3349;49.830;8.748;2023-09-19T02:17:42;3.05;;;2.75;;
6626;SDS011;3349;49.830;8.748;2023-09-19T02:20:10;3.72;;;2.47;;
6626;SDS011;3349;49.830;8.748;2023-09-19T02:22:40;4.20;;;2.70;;
6626;SDS011;3349;49.830;8.748;2023-09-19T02:25:07;2.78;;;2.50;;
6626;SDS011;3349;49.830;8.748;2023-09-19T02:27:34;3.25;;;2.45;;
6626;SDS011;3349;49.830;8.748;2023-09-19T02:30:01;3.90;;;2.30;;
6626;SDS011;3349;49.830;8.748;2023-09-19T02:32:29;3.22;;;2.60;;
6626;SDS011;3349;49.830;8.748;2023-09-19T02:34:56;8.35;;;3.22;;
6626;SDS011;3349;49.830;8.748;2023-09-19T02:37:25;6.75;;;2.70;;
6626;SDS011;3349;49.830;8.748;2023-09-19T02:39:52;4.25;;;2.83;;
6626;SDS011;3349;49.830;8.748;2023-09-19T02:42:19;5.45;;;2.83;;
6626;SDS011;3349;49.830;8.748;2023-09-19T02:44:46;4.32;;;2.75;;
6626;SDS011;3349;49.830;8.748;2023-09-19T02:47:13;3.95;;;2.58;;
6626;SDS011;3349;49.830;8.748;2023-09-19T02:49:41;3.17;;;2.65;;
6626;SDS011;3349;49.830;8.748;2023-09-19T02:52:08;5.93;;;2.83;;
6626;SDS011;3349;49.830;8.748;2023-09-19T02:54:37;4.10;;;2.90;;
6626;SDS011;3349;49.830;8.748;2023-09-19T02:57:04;3.78;;;2.67;;
6626;SDS011;3349;49.830;8.748;2023-09-19T02:59:32;5.10;;;2.50;;
6626;SDS011;3349;49.830;8.748;2023-09-19T03:02:02;6.10;;;3.03;;
6626;SDS011;3349;49.830;8.748;2023-09-19T03:04:29;5.00;;;3.08;;
6626;SDS011;3349;49.830;8.748;2023-09-19T03:06:58;3.78;;;2.63;;
6626;SDS011;3349;49.830;8.748;2023-09-19T03:09:26;6.10;;;3.30;;
6626;SDS011;3349;49.830;8.748;2023-09-19T03:11:54;3.95;;;2.47;;
6626;SDS011;3349;49.830;8.748;2023-09-19T03:14:21;5.07;;;2.67;;
6626;SDS011;3349;49.830;8.748;2023-09-19T03:16:48;3.33;;;2.40;;
6626;SDS011;3349;49.830;8.748;2023-09-19T03:19:17;4.38;;;2.60;;
6626;SDS011;3349;49.830;8.748;2023-09-19T03:21:45;2.53;;;2.15;;
6626;SDS011;3349;49.830;8.748;2023-09-19T03:24:14;4.85;;;2.63;;
6626;SDS011;3349;49.830;8.748;2023-09-19T03:26:41;4.88;;;3.20;;
6626;SDS011;3349;49.830;8.748;2023-09-19T03:29:09;3.60;;;2.67;;
6626;SDS011;3349;49.830;8.748;2023-09-19T03:31:36;5.75;;;2.92;;
6626;SDS011;3349;49.830;8.748;2023-09-19T03:34:03;5.15;;;2.38;;
6626;SDS011;3349;49.830;8.748;2023-09-19T03:36:30;3.25;;;2.63;;
6626;SDS011;3349;49.830;8.748;2023-09-19T03:38:59;4.20;;;2.80;;
6626;SDS011;3349;49.830;8.748;2023-09-19T03:41:26;3.13;;;2.60;;
6626;SDS011;3349;49.830;8.748;2023-09-19T03:43:53;3.55;;;2.70;;
6626;SDS011;3349;49.830;8.748;2023-09-19T03:46:21;4.70;;;2.53;;
6626;SDS011;3349;49.830;8.748;2023-09-19T03:48:48;3.50;;;2.60;;
6626;SDS011;3349;49.830;8.748;2023-09-19T03:51:15;3.80;;;2.25;;
6626;SDS011;3349;49.830;8.748;2023-09-19T03:53:42;2.53;;;2.17;;
6626;SDS011;3349;49.830;8.748;2023-09-19T03:56:08;2.53;;;2.13;;
6626;SDS011;3349;49.830;8.748;2023-09-19T03:58:35;4.43;;;2.17;;
6626;SDS011;3349;49.830;8.748;2023-09-19T04:01:04;2.40;;;2.10;;
6626;SDS011;3349;49.830;8.748;2023-09-19T04:03:32;4.78;;;2.67;;
6626;SDS011;3349;49.830;8.748;2023-09-19T04:06:11;3.70;;;2.33;;
6626;SDS011;3349;49.830;8.748;2023-09-19T04:08:37;3.50;;;2.58;;
6626;SDS011;3349;49.830;8.748;2023-09-19T04:11:04;4.88;;;2.65;;
6626;SDS011;3349;49.830;8.748;2023-09-19T04:13:31;3.05;;;2.75;;
6626;SDS011;3349;49.830;8.748;2023-09-19T04:15:58;4.32;;;2.63;;
6626;SDS011;3349;49.830;8.748;2023-09-19T04:18:24;5.63;;;3.15;;
6626;SDS011;3349;49.830;8.748;2023-09-19T04:20:52;6.78;;;3.05;;
6626;SDS011;3349;49.830;8.748;2023-09-19T04:23:21;6.07;;;3.00;;
6626;SDS011;3349;49.830;8.748;2023-09-19T04:25:47;4.18;;;2.83;;
6626;SDS011;3349;49.830;8.748;2023-09-19T04:28:14;5.97;;;3.08;;
6626;SDS011;3349;49.830;8.748;2023-09-19T04:30:41;4.13;;;3.03;;
6626;SDS011;3349;49.830;8.748;2023-09-19T04:33:08;4.65;;;3.10;;
6626;SDS011;3349;49.830;8.748;2023-09-19T04:35:36;5.78;;;3.58;;
6626;SDS011;3349;49.830;8.748;2023-09-19T04:38:05;5.93;;;4.20;;
6626;SDS011;3349;49.830;8.748;2023-09-19T04:40:32;8.05;;;3.53;;
6626;SDS011;3349;49.830;8.748;2023-09-19T04:42:59;8.30;;;4.15;;
6626;SDS011;3349;49.830;8.748;2023-09-19T04:45:26;7.53;;;4.40;;
6626;SDS011;3349;49.830;8.748;2023-09-19T04:47:54;4.72;;;4.00;;
6626;SDS011;3349;49.830;8.748;2023-09-19T04:50:21;8.43;;;4.68;;
6626;SDS011;3349;49.830;8.748;2023-09-19T04:52:49;8.02;;;3.95;;
6626;SDS011;3349;49.830;8.748;2023-09-19T04:55:18;6.85;;;3.80;;
6626;SDS011;3349;49.830;8.748;2023-09-19T04:57:45;4.03;;;3.72;;
6626;SDS011;3349;49.830;8.748;2023-09-19T05:00:13;5.55;;;3.85;;
6626;SDS011;3349;49.830;8.748;2023-09-19T05:02:42;7.68;;;4.22;;
6626;SDS011;3349;49.830;8.748;2023-09-19T05:05:09;6.78;;;4.10;;
6626;SDS011;3349;49.830;8.748;2023-09-19T05:07:37;6.32;;;3.83;;
6626;SDS011;3349;49.830;8.748;2023-09-19T05:10:05;4.97;;;4.00;;
6626;SDS011;3349;49.830;8.748;2023-09-19T05:12:34;4.20;;;3.80;;
6626;SDS011;3349;49.830;8.748;2023-09-19T05:15:01;6.55;;;3.63;;
6626;SDS011;3349;49.830;8.748;2023-09-19T05:17:28;5.05;;;3.65;;
6626;SDS011;3349;49.830;8.748;2023-09-19T05:19:56;7.00;;;3.70;;
6626;SDS011;3349;49.830;8.748;2023-09-19T05:22:23;5.03;;;3.75;;
6626;SDS011;3349;49.830;8.748;2023-09-19T05:24:50;7.90;;;3.85;;
6626;SDS011;3349;49.830;8.748;2023-09-19T05:27:18;7.43;;;3.95;;
6626;SDS011;3349;49.830;8.748;2023-09-19T05:29:47;4.85;;;3.75;;
6626;SDS011;3349;49.830;8.748;2023-09-19T05:32:15;6.97;;;3.88;;
6626;SDS011;3349;49.830;8.748;2023-09-19T05:34:44;7.00;;;3.88;;
6626;SDS011;3349;49.830;8.748;2023-09-19T05:37:12;6.75;;;3.95;;
6626;SDS011;3349;49.830;8.748;2023-09-19T05:39:41;5.38;;;3.75;;
6626;SDS011;3349;49.830;8.748;2023-09-19T05:42:07;5.82;;;3.97;;
6626;SDS011;3349;49.830;8.748;2023-09-19T05:44:34;8.32;;;4.05;;
6626;SDS011;3349;49.830;8.748;2023-09-19T05:47:03;8.13;;;4.35;;
6626;SDS011;3349;49.830;8.748;2023-09-19T05:49:30;4.75;;;3.40;;
6626;SDS011;3349;49.830;8.748;2023-09-19T05:51:56;6.97;;;4.03;;
6626;SDS011;3349;49.830;8.748;2023-09-19T05:54:24;5.95;;;3.53;;
6626;SDS011;3349;49.830;8.748;2023-09-19T05:56:50;5.00;;;3.25;;
6626;SDS011;3349;49.830;8.748;2023-09-19T05:59:18;7.32;;;3.30;;
6626;SDS011;3349;49.830;8.748;2023-09-19T06:01:45;5.10;;;3.58;;
6626;SDS011;3349;49.830;8.748;2023-09-19T06:04:13;5.32;;;3.55;;
6626;SDS011;3349;49.830;8.748;2023-09-19T06:06:40;6.78;;;3.00;;
6626;SDS011;3349;49.830;8.748;2023-09-19T06:09:07;4.40;;;3.38;;
6626;SDS011;3349;49.830;8.748;2023-09-19T06:11:34;6.88;;;3.08;;
6626;SDS011;3349;49.830;8.748;2023-09-19T06:14:01;5.28;;;3.53;;
6626;SDS011;3349;49.830;8.748;2023-09-19T06:16:28;4.47;;;3.15;;
6626;SDS011;3349;49.830;8.748;2023-09-19T06:18:55;6.63;;;2.50;;
6626;SDS011;3349;49.830;8.748;2023-09-19T06:21:23;5.32;;;2.65;;
6626;SDS011;3349;49.830;8.748;2023-09-19T06:23:50;4.95;;;2.92;;
6626;SDS011;3349;49.830;8.748;2023-09-19T06:26:17;5.43;;;2.78;;
6626;SDS011;3349;49.830;8.748;2023-09-19T06:28:44;7.00;;;2.55;;
6626;SDS011;3349;49.830;8.748;2023-09-19T06:31:10;9.02;;;2.85;;
6626;SDS011;3349;49.830;8.748;2023-09-19T06:33:39;4.47;;;2.90;;
6626;SDS011;3349;49.830;8.748;2023-09-19T06:36:05;5.97;;;2.80;;
6626;SDS011;3349;49.830;8.748;2023-09-19T06:38:34;6.05;;;2.72;;
6626;SDS011;3349;49.830;8.748;2023-09-19T06:41:01;6.38;;;2.90;;
6626;SDS011;3349;49.830;8.748;2023-09-19T06:43:30;6.60;;;3.15;;
6626;SDS011;3349;49.830;8.748;2023-09-19T06:45:57;3.47;;;2.90;;
6626;SDS011;3349;49.830;8.748;2023-09-19T06:48:24;8.48;;;3.15;;
6626;SDS011;3349;49.830;8.748;2023-09-19T06:50:52;5.97;;;3.45;;
6626;SDS011;3349;49.830;8.748;2023-09-19T06:53:20;6.45;;;4.05;;
6626;SDS011;3349;49.830;8.748;2023-09-19T06:55:50;6.57;;;3.50;;
6626;SDS011;3349;49.830;8.748;2023-09-19T06:58:16;6.03;;;3.83;;
6626;SDS011;3349;49.830;8.748;2023-09-19T07:00:44;6.13;;;4.18;;
6626;SDS011;3349;49.830;8.748;2023-09-19T07:03:13;6.35;;;3.88;;
6626;SDS011;3349;49.830;8.748;2023-09-19T07:05:41;4.57;;;3.63;;
6626;SDS011;3349;49.830;8.748;2023-09-19T07:08:08;5.30;;;3.55;;
6626;SDS011;3349;49.830;8.748;2023-09-19T07:10:37;6.55;;;3.53;;
6626;SDS011;3349;49.830;8.748;2023-09-19T07:13:07;7.15;;;3.85;;
6626;SDS011;3349;49.830;8.748;2023-09-19T07:15:35;5.20;;;3.22;;
6626;SDS011;3349;49.830;8.748;2023-09-19T07:18:07;7.20;;;3.72;;
6626;SDS011;3349;49.830;8.748;2023-09-19T07:20:36;5.28;;;3.28;;
6626;SDS011;3349;49.830;8.748;2023-09-19T07:23:03;7.22;;;3.25;;
6626;SDS011;3349;49.830;8.748;2023-09-19T07:25:31;6.32;;;3.55;;
6626;SDS011;3349;49.830;8.748;2023-09-19T07:27:58;4.55;;;3.10;;
6626;SDS011;3349;49.830;8.748;2023-09-19T07:30:26;5.50;;;3.55;;
6626;SDS011;3349;49.830;8.748;2023-09-19T07:32:53;7.63;;;3.35;;
6626;SDS011;3349;49.830;8.748;2023-09-19T07:35:20;8.25;;;3.20;;
6626;SDS011;3349;49.830;8.748;2023-09-19T07:37:47;4.03;;;2.75;;
6626;SDS011;3349;49.830;8.748;2023-09-19T07:40:14;6.55;;;2.65;;
6626;SDS011;3349;49.830;8.748;2023-09-19T07:42:41;6.43;;;3.20;;
6626;SDS011;3349;49.830;8.748;2023-09-19T07:45:11;6.13;;;3.22;;
6626;SDS011;3349;49.830;8.748;2023-09-19T07:47:43;7.00;;;2.80;;
6626;SDS011;3349;49.830;8.748;2023-09-19T07:50:10;5.40;;;2.80;;
6626;SDS011;3349;49.830;8.748;2023-09-19T07:52:37;5.78;;;3.08;;
6626;SDS011;3349;49.830;8.748;2023-09-19T07:55:04;5.38;;;3.20;;
6626;SDS011;3349;49.830;8.748;2023-09-19T07:57:34;4.97;;;2.80;;
6626;SDS011;3349;49.830;8.748;2023-09-19T08:00:02;5.35;;;2.53;;
6626;SDS011;3349;49.830;8.748;2023-09-19T08:02:33;5.43;;;2.85;;
6626;SDS011;3349;49.830;8.748;2023-09-19T08:05:04;5.32;;;2.80;;
6626;SDS011;3349;49.830;8.748;2023-09-19T08:07:34;6.35;;;3.20;;
6626;SDS011;3349;49.830;8.748;2023-09-19T08:10:01;5.07;;;2.72;;
6626;SDS011;3349;49.830;8.748;2023-09-19T08:12:28;4.40;;;2.65;;
6626;SDS011;3349;49.830;8.748;2023-09-19T08:14:57;4.07;;;2.90;;
6626;SDS011;3349;49.830;8.748;2023-09-19T08:17:24;7.38;;;3.13;;
6626;SDS011;3349;49.830;8.748;2023-09-19T08:19:50;5.65;;;2.97;;
6626;SDS011;3349;49.830;8.748;2023-09-19T08:22:19;6.57;;;3.17;;
6626;SDS011;3349;49.830;8.748;2023-09-19T08:24:46;5.28;;;3.08;;
6626;SDS011;3349;49.830;8.748;2023-09-19T08:27:13;8.20;;;2.72;;
6626;SDS011;3349;49.830;8.748;2023-09-19T08:29:43;6.88;;;2.78;;
6626;SDS011;3349;49.830;8.748;2023-09-19T08:32:10;8.00;;;3.38;;
6626;SDS011;3349;49.830;8.748;2023-09-19T08:34:36;5.65;;;3.15;;
6626;SDS011;3349;49.830;8.748;2023-09-19T08:37:03;5.93;;;2.83;;
6626;SDS011;3349;49.830;8.748;2023-09-19T08:39:31;5.95;;;3.00;;
6626;SDS011;3349;49.830;8.748;2023-09-19T08:42:00;4.55;;;3.13;;
6626;SDS011;3349;49.830;8.748;2023-09-19T08:44:27;4.32;;;2.60;;
6626;SDS011;3349;49.830;8.748;2023-09-19T08:46:55;6.20;;;2.90;;
6626;SDS011;3349;49.830;8.748;2023-09-19T08:49:33;5.93;;;2.55;;
6626;SDS011;3349;49.830;8.748;2023-09-19T08:52:06;8.25;;;3.00;;
6626;SDS011;3349;49.830;8.748;2023-09-19T08:54:43;4.63;;;2.70;;
6626;SDS011;3349;49.830;8.748;2023-09-19T08:57:13;3.95;;;2.78;;
6626;SDS011;3349;49.830;8.748;2023-09-19T08:59:46;3.97;;;2.65;;
6626;SDS011;3349;49.830;8.748;2023-09-19T09:02:16;6.88;;;3.00;;
6626;SDS011;3349;49.830;8.748;2023-09-19T09:04:43;5.00;;;2.67;;
6626;SDS011;3349;49.830;8.748;2023-09-19T09:07:11;5.07;;;2.88;;
6626;SDS011;3349;49.830;8.748;2023-09-19T09:09:39;4.90;;;2.47;;
6626;SDS011;3349;49.830;8.748;2023-09-19T09:12:09;6.93;;;2.58;;
6626;SDS011;3349;49.830;8.748;2023-09-19T09:14:38;4.78;;;2.80;;
6626;SDS011;3349;49.830;8.748;2023-09-19T09:17:05;4.82;;;2.70;;
6626;SDS011;3349;49.830;8.748;2023-09-19T09:19:32;4.72;;;2.53;;
6626;SDS011;3349;49.830;8.748;2023-09-19T09:22:05;5.85;;;2.65;;
6626;SDS011;3349;49.830;8.748;2023-09-19T09:24:33;4.88;;;3.05;;
6626;SDS011;3349;49.830;8.748;2023-09-19T09:27:02;6.00;;;3.10;;
6626;SDS011;3349;49.830;8.748;2023-09-19T09:29:41;3.53;;;2.40;;
6626;SDS011;3349;49.830;8.748;2023-09-19T09:32:22;4.97;;;2.65;;
6626;SDS011;3349;49.830;8.748;2023-09-19T09:34:50;5.95;;;2.80;;
6626;SDS011;3349;49.830;8.748;2023-09-19T09:37:19;9.50;;;2.90;;
6626;SDS011;3349;49.830;8.748;2023-09-19T09:39:50;4.93;;;2.70;;
6626;SDS011;3349;49.830;8.748;2023-09-19T09:42:30;5.00;;;2.50;;
6626;SDS011;3349;49.830;8.748;2023-09-19T09:48:02;5.68;;;2.40;;
6626;SDS011;3349;49.830;8.748;2023-09-19T09:50:29;5.45;;;2.60;;
6626;SDS011;3349;49.830;8.748;2023-09-19T09:53:22;5.20;;;2.67;;
6626;SDS011;3349;49.830;8.748;2023-09-19T09:55:59;5.05;;;2.70;;
6626;SDS011;3349;49.830;8.748;2023-09-19T09:58:27;5.07;;;2.75;;
6626;SDS011;3349;49.830;8.748;2023-09-19T10:00:57;3.97;;;2.75;;
6626;SDS011;3349;49.830;8.748;2023-09-19T10:03:31;6.35;;;2.75;;
6626;SDS011;3349;49.830;8.748;2023-09-19T10:06:04;5.18;;;2.28;;
6626;SDS011;3349;49.830;8.748;2023-09-19T10:09:03;4.07;;;2.90;;
6626;SDS011;3349;49.830;8.748;2023-09-19T10:11:42;5.82;;;2.65;;
6626;SDS011;3349;49.830;8.748;2023-09-19T10:14:10;4.18;;;2.63;;
6626;SDS011;3349;49.830;8.748;2023-09-19T10:16:43;4.82;;;2.40;;
6626;SDS011;3349;49.830;8.748;2023-09-19T10:19:14;5.43;;;3.00;;
6626;SDS011;3349;49.830;8.748;2023-09-19T10:21:44;5.25;;;2.80;;
6626;SDS011;3349;49.830;8.748;2023-09-19T10:24:11;3.45;;;2.63;;
6626;SDS011;3349;49.830;8.748;2023-09-19T10:26:41;7.25;;;3.10;;
6626;SDS011;3349;49.830;8.748;2023-09-19T10:29:10;6.75;;;3.00;;
6626;SDS011;3349;49.830;8.748;2023-09-19T10:31:40;4.97;;;2.75;;
6626;SDS011;3349;49.830;8.748;2023-09-19T10:34:12;4.72;;;2.40;;
6626;SDS011;3349;49.830;8.748;2023-09-19T10:36:42;6.05;;;2.83;;
6626;SDS011;3349;49.830;8.748;2023-09-19T10:39:12;4.32;;;2.67;;
6626;SDS011;3349;49.830;8.748;2023-09-19T10:41:43;8.00;;;2.63;;
6626;SDS011;3349;49.830;8.748;2023-09-19T10:44:18;5.22;;;2.97;;
6626;SDS011;3349;49.830;8.748;2023-09-19T10:46:49;6.10;;;2.67;;
6626;SDS011;3349;49.830;8.748;2023-09-19T10:49:17;3.80;;;2.80;;
6626;SDS011;3349;49.830;8.748;2023-09-19T10:51:44;4.45;;;2.60;;
6626;SDS011;3349;49.830;8.748;2023-09-19T10:54:15;4.35;;;2.70;;
6626;SDS011;3349;49.830;8.748;2023-09-19T10:56:46;7.03;;;2.75;;
6626;SDS011;3349;49.830;8.748;2023-09-19T10:59:15;5.28;;;2.63;;
6626;SDS011;3349;49.830;8.748;2023-09-19T11:01:43;5.32;;;2.72;;
6626;SDS011;3349;49.830;8.748;2023-09-19T11:04:26;3.35;;;2.55;;
6626;SDS011;3349;49.830;8.748;2023-09-19T11:07:04;5.50;;;2.78;;
6626;SDS011;3349;49.830;8.748;2023-09-19T11:09:45;6.65;;;2.92;;
6626;SDS011;3349;49.830;8.748;2023-09-19T11:24:28;5.43;;;2.75;;
6626;SDS011;3349;49.830;8.748;2023-09-19T11:27:10;4.50;;;2.90;;
6626;SDS011;3349;49.830;8.748;2023-09-19T11:29:39;7.38;;;3.10;;
6626;SDS011;3349;49.830;8.748;2023-09-19T11:32:06;4.03;;;2.70;;
6626;SDS011;3349;49.830;8.748;2023-09-19T11:34:38;5.03;;;2.50;;
6626;SDS011;3349;49.830;8.748;2023-09-19T11:40:07;4.97;;;3.00;;
6626;SDS011;3349;49.830;8.748;2023-09-19T11:42:42;6.75;;;3.50;;
6626;SDS011;3349;49.830;8.748;2023-09-19T11:48:15;4.85;;;3.00;;
6626;SDS011;3349;49.830;8.748;2023-09-19T11:50:45;4.35;;;2.72;;
6626;SDS011;3349;49.830;8.748;2023-09-19T11:53:12;5.32;;;3.08;;
6626;SDS011;3349;49.830;8.748;2023-09-19T11:55:43;5.85;;;3.00;;
6626;SDS011;3349;49.830;8.748;2023-09-19T11:58:10;4.95;;;2.53;;
6626;SDS011;3349;49.830;8.748;2023-09-19T12:00:42;4.70;;;2.40;;
6626;SDS011;3349;49.830;8.748;2023-09-19T12:03:11;4.97;;;2.50;;
6626;SDS011;3349;49.830;8.748;2023-09-19T12:05:39;4.82;;;2.70;;
6626;SDS011;3349;49.830;8.748;2023-09-19T12:08:06;4.63;;;2.58;;
6626;SDS011;3349;49.830;8.748;2023-09-19T12:10:34;3.72;;;2.33;;
6626;SDS011;3349;49.830;8.748;2023-09-19T12:13:15;3.65;;;2.13;;
6626;SDS011;3349;49.830;8.748;2023-09-19T12:15:41;5.60;;;2.22;;
6626;SDS011;3349;49.830;8.748;2023-09-19T12:18:10;5.15;;;2.80;;
6626;SDS011;3349;49.830;8.748;2023-09-19T12:20:51;4.18;;;2.78;;
6626;SDS011;3349;49.830;8.748;2023-09-19T12:23:19;4.28;;;2.75;;
6626;SDS011;3349;49.830;8.748;2023-09-19T12:25:47;4.80;;;2.85;;
6626;SDS011;3349;49.830;8.748;2023-09-19T12:28:18;6.70;;;2.60;;
6626;SDS011;3349;49.830;8.748;2023-09-19T12:30:47;3.35;;;2.65;;
6626;SDS011;3349;49.830;8.748;2023-09-19T12:33:17;3.63;;;2.65;;
6626;SDS011;3349;49.830;8.748;2023-09-19T12:35:46;4.88;;;2.75;;
6626;SDS011;3349;49.830;8.748;2023-09-19T12:38:22;3.58;;;2.28;;
6626;SDS011;3349;49.830;8.748;2023-09-19T12:40:54;5.45;;;2.70;;
6626;SDS011;3349;49.830;8.748;2023-09-19T12:43:23;4.60;;;3.00;;
6626;SDS011;3349;49.830;8.748;2023-09-19T12:45:51;6.03;;;2.47;;
6626;SDS011;3349;49.830;8.748;2023-09-19T12:48:19;3.58;;;2.53;;
6626;SDS011;3349;49.830;8.748;2023-09-19T12:51:00;4.72;;;2.58;;
6626;SDS011;3349;49.830;8.748;2023-09-19T12:53:31;3.58;;;2.72;;
6626;SDS011;3349;49.830;8.748;2023-09-19T12:56:02;3.88;;;2.65;;
6626;SDS011;3349;49.830;8.748;2023-09-19T12:58:31;3.88;;;2.30;;
6626;SDS011;3349;49.830;8.748;2023-09-19T13:00:59;5.53;;;2.67;;
6626;SDS011;3349;49.830;8.748;2023-09-19T13:03:27;5.22;;;2.63;;
6626;SDS011;3349;49.830;8.748;2023-09-19T13:05:57;4.97;;;2.60;;
6626;SDS011;3349;49.830;8.748;2023-09-19T13:08:26;3.53;;;2.55;;
6626;SDS011;3349;49.830;8.748;2023-09-19T13:11:00;4.07;;;2.58;;
6626;SDS011;3349;49.830;8.748;2023-09-19T13:13:37;3.35;;;2.22;;
6626;SDS011;3349;49.830;8.748;2023-09-19T13:16:06;4.32;;;2.63;;
6626;SDS011;3349;49.830;8.748;2023-09-19T13:18:46;4.32;;;2.33;;
6626;SDS011;3349;49.830;8.748;2023-09-19T13:21:16;3.50;;;2.30;;
6626;SDS011;3349;49.830;8.748;2023-09-19T13:23:50;4.60;;;2.25;;
6626;SDS011;3349;49.830;8.748;2023-09-19T13:26:18;4.68;;;2.05;;
6626;SDS011;3349;49.830;8.748;2023-09-19T13:28:45;5.53;;;1.90;;
6626;SDS011;3349;49.830;8.748;2023-09-19T13:31:14;5.03;;;2.15;;
6626;SDS011;3349;49.830;8.748;2023-09-19T13:33:44;3.67;;;2.00;;
6626;SDS011;3349;49.830;8.748;2023-09-19T13:36:11;3.22;;;2.00;;
6626;SDS011;3349;49.830;8.748;2023-09-19T13:38:39;3.78;;;2.10;;
6626;SDS011;3349;49.830;8.748;2023-09-19T13:41:07;3.50;;;2.10;;
6626;SDS011;3349;49.830;8.748;2023-09-19T13:43:36;4.78;;;2.08;;
6626;SDS011;3349;49.830;8.748;2023-09-19T13:46:03;3.95;;;2.20;;
6626;SDS011;3349;49.830;8.748;2023-09-19T13:48:32;2.70;;;1.85;;
6626;SDS011;3349;49.830;8.748;2023-09-19T13:51:01;4.35;;;2.00;;
6626;SDS011;3349;49.830;8.748;2023-09-19T13:53:28;2.65;;;2.08;;
6626;SDS011;3349;49.830;8.748;2023-09-19T13:55:55;2.88;;;2.13;;
6626;SDS011;3349;49.830;8.748;2023-09-19T13:58:21;4.30;;;2.00;;
6626;SDS011;3349;49.830;8.748;2023-09-19T14:00:50;3.22;;;2.00;;
6626;SDS011;3349;49.830;8.748;2023-09-19T14:03:20;3.15;;;2.22;;
6626;SDS011;3349;49.830;8.748;2023-09-19T14:05:47;2.78;;;1.98;;
6626;SDS011;3349;49.830;8.748;2023-09-19T14:08:16;3.30;;;1.70;;
6626;SDS011;3349;49.830;8.748;2023-09-19T14:10:43;3.55;;;1.90;;
6626;SDS011;3349;49.830;8.748;2023-09-19T14:13:10;6.35;;;2.10;;
6626;SDS011;3349;49.830;8.748;2023-09-19T14:15:38;4.32;;;2.10;;
6626;SDS011;3349;49.830;8.748;2023-09-19T14:18:05;3.97;;;2.30;;
6626;SDS011;3349;49.830;8.748;2023-09-19T14:20:32;3.30;;;2.10;;
6626;SDS011;3349;49.830;8.748;2023-09-19T14:22:58;3.80;;;2.45;;
6626;SDS011;3349;49.830;8.748;2023-09-19T14:25:26;2.92;;;2.10;;
6626;SDS011;3349;49.830;8.748;2023-09-19T14:27:53;3.58;;;2.22;;
6626;SDS011;3349;49.830;8.748;2023-09-19T14:30:20;8.13;;;2.38;;
6626;SDS011;3349;49.830;8.748;2023-09-19T14:32:48;3.85;;;2.40;;
6626;SDS011;3349;49.830;8.748;2023-09-19T14:35:16;3.45;;;2.00;;
6626;SDS011;3349;49.830;8.748;2023-09-19T14:37:42;3.65;;;2.17;;
6626;SDS011;3349;49.830;8.748;2023-09-19T14:40:09;4.38;;;2.22;;
6626;SDS011;3349;49.830;8.748;2023-09-19T14:42:38;3.83;;;2.10;;
6626;SDS011;3349;49.830;8.748;2023-09-19T14:45:06;3.47;;;2.33;;
6626;SDS011;3349;49.830;8.748;2023-09-19T14:47:34;4.53;;;2.13;;
6626;SDS011;3349;49.830;8.748;2023-09-19T14:50:01;3.28;;;2.10;;
6626;SDS011;3349;49.830;8.748;2023-09-19T14:52:32;3.90;;;2.05;;
6626;SDS011;3349;49.830;8.748;2023-09-19T14:55:01;4.68;;;2.20;;
6626;SDS011;3349;49.830;8.748;2023-09-19T14:57:29;2.25;;;1.90;;
6626;SDS011;3349;49.830;8.748;2023-09-19T14:59:56;3.38;;;2.00;;
6626;SDS011;3349;49.830;8.748;2023-09-19T15:02:23;2.90;;;1.92;;
6626;SDS011;3349;49.830;8.748;2023-09-19T15:04:51;4.15;;;2.28;;
6626;SDS011;3349;49.830;8.748;2023-09-19T15:07:18;2.67;;;2.05;;
6626;SDS011;3349;49.830;8.748;2023-09-19T15:09:46;5.07;;;2.15;;
6626;SDS011;3349;49.830;8.748;2023-09-19T15:12:12;3.08;;;2.15;;
6626;SDS011;3349;49.830;8.748;2023-09-19T15:14:40;5.43;;;2.00;;
6626;SDS011;3349;49.830;8.748;2023-09-19T15:17:07;2.58;;;2.10;;
6626;SDS011;3349;49.830;8.748;2023-09-19T15:19:33;3.60;;;2.03;;
6626;SDS011;3349;49.830;8.748;2023-09-19T15:22:00;5.00;;;2.25;;
6626;SDS011;3349;49.830;8.748;2023-09-19T15:24:27;2.83;;;1.83;;
6626;SDS011;3349;49.830;8.748;2023-09-19T15:26:56;2.53;;;1.90;;
6626;SDS011;3349;49.830;8.748;2023-09-19T15:29:22;4.50;;;2.20;;
6626;SDS011;3349;49.830;8.748;2023-09-19T15:31:49;3.95;;;2.15;;
6626;SDS011;3349;49.830;8.748;2023-09-19T15:34:16;3.08;;;1.75;;
6626;SDS011;3349;49.830;8.748;2023-09-19T15:36:43;4.03;;;2.50;;
6626;SDS011;3349;49.830;8.748;2023-09-19T15:39:11;3.58;;;1.98;;
6626;SDS011;3349;49.830;8.748;2023-09-19T15:41:40;3.78;;;1.85;;
6626;SDS011;3349;49.830;8.748;2023-09-19T15:44:13;6.43;;;2.30;;
6626;SDS011;3349;49.830;8.748;2023-09-19T15:46:41;3.13;;;1.95;;
6626;SDS011;3349;49.830;8.748;2023-09-19T15:49:09;4.40;;;2.20;;